sensor_id;sensor_type;location;lat;lon;timestamp;P1;durP1;ratioP1;P2;durP2;ratioP2
13012;SDS011;22580;57.670;12.006;2023-04-01T00:02:10;0.87;;;0.87;;
13012;SDS011;22580;57.670;12.006;2023-04-01T00:04:43;0.93;;;0.90;;
13012;SDS011;22580;57.670;12.006;2023-04-01T00:07:21;0.73;;;0.73;;
13012;SDS011;22580;57.670;12.006;2023-04-01T00:09:51;0.60;;;0.60;;
13012;SDS011;22580;57.670;12.006;2023-04-01T00:12:20;1.53;;;1.00;;
13012;SDS011;22580;57.670;12.006;2023-04-01T00:14:49;0.63;;;0.60;;
13012;SDS011;22580;57.670;12.006;2023-04-01T00:17:17;0.73;;;0.70;;
13012;SDS011;22580;57.670;12.006;2023-04-01T00:19:53;0.87;;;0.87;;
13012;SDS011;22580;57.670;12.006;2023-04-01T00:22:30;0.70;;;0.70;;
13012;SDS011;22580;57.670;12.006;2023-04-01T00:25:00;0.70;;;0.70;;
13012;SDS011;22580;57.670;12.006;2023-04-01T00:27:33;0.90;;;0.90;;
13012;SDS011;22580;57.670;12.006;2023-04-01T00:30:10;0.80;;;0.80;;
13012;SDS011;22580;57.670;12.006;2023-04-01T00:32:40;0.70;;;0.70;;
13012;SDS011;22580;57.670;12.006;2023-04-01T00:35:10;0.70;;;0.70;;
13012;SDS011;22580;57.670;12.006;2023-04-01T00:37:43;0.83;;;0.70;;
13012;SDS011;22580;57.670;12.006;2023-04-01T00:40:23;0.80;;;0.80;;
13012;SDS011;22580;57.670;12.006;2023-04-01T00:43:20;0.90;;;0.90;;
13012;SDS011;22580;57.670;12.006;2023-04-01T00:45:50;1.03;;;0.90;;
13012;SDS011;22580;57.670;12.006;2023-04-01T00:48:21;0.90;;;0.90;;
13012;SDS011;22580;57.670;12.006;2023-04-01T00:50:50;0.90;;;0.90;;
13012;SDS011;22580;57.670;12.006;2023-04-01T00:53:34;0.70;;;0.70;;
13012;SDS011;22580;57.670;12.006;2023-04-01T00:56:11;0.80;;;0.73;;
13012;SDS011;22580;57.670;12.006;2023-04-01T00:58:50;0.70;;;0.70;;
13012;SDS011;22580;57.670;12.006;2023-04-01T01:01:42;0.63;;;0.63;;
13012;SDS011;22580;57.670;12.006;2023-04-01T01:04:20;0.57;;;0.57;;
13012;SDS011;22580;57.670;12.006;2023-04-01T01:06:50;1.03;;;1.03;;
13012;SDS011;22580;57.670;12.006;2023-04-01T01:12:34;0.70;;;0.70;;
13012;SDS011;22580;57.670;12.006;2023-04-01T01:15:23;0.60;;;0.60;;
13012;SDS011;22580;57.670;12.006;2023-04-01T01:18:02;0.80;;;0.80;;
13012;SDS011;22580;57.670;12.006;2023-04-01T01:21:02;0.90;;;0.80;;
13012;SDS011;22580;57.670;12.006;2023-04-01T01:24:03;0.80;;;0.80;;
13012;SDS011;22580;57.670;12.006;2023-04-01T01:27:02;0.87;;;0.87;;
13012;SDS011;22580;57.670;12.006;2023-04-01T01:35:41;0.80;;;0.80;;
13012;SDS011;22580;57.670;12.006;2023-04-01T01:38:24;0.90;;;0.90;;
13012;SDS011;22580;57.670;12.006;2023-04-01T01:41:10;0.60;;;0.60;;
13012;SDS011;22580;57.670;12.006;2023-04-01T01:43:53;1.07;;;1.07;;
13012;SDS011;22580;57.670;12.006;2023-04-01T01:46:43;0.63;;;0.63;;
13012;SDS011;22580;57.670;12.006;2023-04-01T01:49:21;0.90;;;0.90;;
13012;SDS011;22580;57.670;12.006;2023-04-01T01:52:01;0.70;;;0.70;;
13012;SDS011;22580;57.670;12.006;2023-04-01T01:54:30;0.90;;;0.90;;
13012;SDS011;22580;57.670;12.006;2023-04-01T01:57:01;0.80;;;0.80;;
13012;SDS011;22580;57.670;12.006;2023-04-01T01:59:41;0.80;;;0.80;;
13012;SDS011;22580;57.670;12.006;2023-04-01T02:02:22;0.80;;;0.80;;
13012;SDS011;22580;57.670;12.006;2023-04-01T02:04:59;0.70;;;0.70;;
13012;SDS011;22580;57.670;12.006;2023-04-01T02:07:33;0.63;;;0.63;;
13012;SDS011;22580;57.670;12.006;2023-04-01T02:10:11;0.90;;;0.70;;
13012;SDS011;22580;57.670;12.006;2023-04-01T02:12:39;0.70;;;0.67;;
13012;SDS011;22580;57.670;12.006;2023-04-01T02:15:26;0.70;;;0.70;;
13012;SDS011;22580;57.670;12.006;2023-04-01T02:18:00;0.97;;;0.97;;
13012;SDS011;22580;57.670;12.006;2023-04-01T02:20:30;0.73;;;0.73;;
13012;SDS011;22580;57.670;12.006;2023-04-01T02:23:00;1.00;;;0.90;;
13012;SDS011;22580;57.670;12.006;2023-04-01T02:25:33;0.90;;;0.63;;
13012;SDS011;22580;57.670;12.006;2023-04-01T02:28:20;0.70;;;0.70;;
13012;SDS011;22580;57.670;12.006;2023-04-01T02:30:50;0.73;;;0.73;;
13012;SDS011;22580;57.670;12.006;2023-04-01T02:33:20;0.70;;;0.70;;
13012;SDS011;22580;57.670;12.006;2023-04-01T02:35:50;0.80;;;0.80;;
13012;SDS011;22580;57.670;12.006;2023-04-01T02:38:21;0.97;;;0.80;;
13012;SDS011;22580;57.670;12.006;2023-04-01T02:40:51;0.90;;;0.70;;
13012;SDS011;22580;57.670;12.006;2023-04-01T02:43:40;1.80;;;0.83;;
13012;SDS011;22580;57.670;12.006;2023-04-01T02:46:11;0.77;;;0.70;;
13012;SDS011;22580;57.670;12.006;2023-04-01T02:48:39;0.60;;;0.60;;
13012;SDS011;22580;57.670;12.006;2023-04-01T02:51:12;0.63;;;0.63;;
13012;SDS011;22580;57.670;12.006;2023-04-01T02:53:43;1.13;;;0.77;;
13012;SDS011;22580;57.670;12.006;2023-04-01T02:56:20;0.60;;;0.60;;
13012;SDS011;22580;57.670;12.006;2023-04-01T02:58:53;0.60;;;0.60;;
13012;SDS011;22580;57.670;12.006;2023-04-01T03:01:34;0.60;;;0.60;;
13012;SDS011;22580;57.670;12.006;2023-04-01T03:04:10;0.70;;;0.60;;
13012;SDS011;22580;57.670;12.006;2023-04-01T03:06:40;0.50;;;0.50;;
13012;SDS011;22580;57.670;12.006;2023-04-01T03:09:11;0.77;;;0.57;;
13012;SDS011;22580;57.670;12.006;2023-04-01T03:11:41;0.60;;;0.60;;
13012;SDS011;22580;57.670;12.006;2023-04-01T03:14:08;0.70;;;0.70;;
13012;SDS011;22580;57.670;12.006;2023-04-01T03:16:41;0.60;;;0.50;;
13012;SDS011;22580;57.670;12.006;2023-04-01T03:19:11;0.57;;;0.57;;
13012;SDS011;22580;57.670;12.006;2023-04-01T03:21:41;1.10;;;0.70;;
13012;SDS011;22580;57.670;12.006;2023-04-01T03:24:11;0.77;;;0.73;;
13012;SDS011;22580;57.670;12.006;2023-04-01T03:26:41;0.80;;;0.80;;
13012;SDS011;22580;57.670;12.006;2023-04-01T03:29:11;0.70;;;0.70;;
13012;SDS011;22580;57.670;12.006;2023-04-01T03:31:40;0.40;;;0.40;;
13012;SDS011;22580;57.670;12.006;2023-04-01T03:34:13;0.40;;;0.40;;
13012;SDS011;22580;57.670;12.006;2023-04-01T03:36:50;0.50;;;0.50;;
13012;SDS011;22580;57.670;12.006;2023-04-01T03:39:21;0.50;;;0.50;;
13012;SDS011;22580;57.670;12.006;2023-04-01T03:41:50;0.60;;;0.60;;
13012;SDS011;22580;57.670;12.006;2023-04-01T03:44:21;0.70;;;0.70;;
13012;SDS011;22580;57.670;12.006;2023-04-01T03:46:50;0.50;;;0.50;;
13012;SDS011;22580;57.670;12.006;2023-04-01T03:49:20;1.00;;;0.70;;
13012;SDS011;22580;57.670;12.006;2023-04-01T03:51:49;0.40;;;0.40;;
13012;SDS011;22580;57.670;12.006;2023-04-01T03:54:21;0.60;;;0.60;;
13012;SDS011;22580;57.670;12.006;2023-04-01T03:56:50;0.57;;;0.57;;
13012;SDS011;22580;57.670;12.006;2023-04-01T03:59:20;0.50;;;0.50;;
13012;SDS011;22580;57.670;12.006;2023-04-01T04:01:53;1.07;;;0.60;;
13012;SDS011;22580;57.670;12.006;2023-04-01T04:04:31;0.50;;;0.50;;
13012;SDS011;22580;57.670;12.006;2023-04-01T04:07:01;0.60;;;0.60;;
13012;SDS011;22580;57.670;12.006;2023-04-01T04:09:31;0.50;;;0.50;;
13012;SDS011;22580;57.670;12.006;2023-04-01T04:12:00;0.60;;;0.60;;
13012;SDS011;22580;57.670;12.006;2023-04-01T04:14:33;0.50;;;0.50;;
13012;SDS011;22580;57.670;12.006;2023-04-01T04:17:11;0.57;;;0.43;;
13012;SDS011;22580;57.670;12.006;2023-04-01T04:19:42;0.63;;;0.63;;
13012;SDS011;22580;57.670;12.006;2023-04-01T04:22:11;0.77;;;0.77;;
13012;SDS011;22580;57.670;12.006;2023-04-01T04:24:42;0.50;;;0.50;;
13012;SDS011;22580;57.670;12.006;2023-04-01T04:27:10;0.50;;;0.50;;
13012;SDS011;22580;57.670;12.006;2023-04-01T04:29:39;0.60;;;0.60;;
13012;SDS011;22580;57.670;12.006;2023-04-01T04:32:06;0.60;;;0.60;;
13012;SDS011;22580;57.670;12.006;2023-04-01T04:34:38;0.50;;;0.50;;
13012;SDS011;22580;57.670;12.006;2023-04-01T04:37:11;0.50;;;0.50;;
13012;SDS011;22580;57.670;12.006;2023-04-01T04:39:42;0.53;;;0.53;;
13012;SDS011;22580;57.670;12.006;2023-04-01T04:42:12;1.07;;;0.50;;
13012;SDS011;22580;57.670;12.006;2023-04-01T04:44:42;1.43;;;0.60;;
13012;SDS011;22580;57.670;12.006;2023-04-01T04:47:12;0.50;;;0.50;;
13012;SDS011;22580;57.670;12.006;2023-04-01T04:49:42;0.50;;;0.50;;
13012;SDS011;22580;57.670;12.006;2023-04-01T04:52:12;0.47;;;0.47;;
13012;SDS011;22580;57.670;12.006;2023-04-01T04:54:40;0.40;;;0.40;;
13012;SDS011;22580;57.670;12.006;2023-04-01T04:57:13;0.60;;;0.60;;
13012;SDS011;22580;57.670;12.006;2023-04-01T04:59:40;0.30;;;0.30;;
13012;SDS011;22580;57.670;12.006;2023-04-01T05:02:07;0.50;;;0.50;;
13012;SDS011;22580;57.670;12.006;2023-04-01T05:04:42;0.40;;;0.40;;
13012;SDS011;22580;57.670;12.006;2023-04-01T05:07:11;0.60;;;0.60;;
13012;SDS011;22580;57.670;12.006;2023-04-01T05:09:42;0.60;;;0.60;;
13012;SDS011;22580;57.670;12.006;2023-04-01T05:12:10;0.60;;;0.50;;
13012;SDS011;22580;57.670;12.006;2023-04-01T05:14:40;0.50;;;0.50;;
13012;SDS011;22580;57.670;12.006;2023-04-01T05:17:10;0.50;;;0.50;;
13012;SDS011;22580;57.670;12.006;2023-04-01T05:19:41;0.70;;;0.70;;
13012;SDS011;22580;57.670;12.006;2023-04-01T05:22:13;0.73;;;0.67;;
13012;SDS011;22580;57.670;12.006;2023-04-01T05:24:51;0.77;;;0.77;;
13012;SDS011;22580;57.670;12.006;2023-04-01T05:27:21;1.00;;;0.57;;
13012;SDS011;22580;57.670;12.006;2023-04-01T05:29:53;0.60;;;0.60;;
13012;SDS011;22580;57.670;12.006;2023-04-01T05:32:30;2.50;;;0.50;;
13012;SDS011;22580;57.670;12.006;2023-04-01T05:35:00;0.60;;;0.60;;
13012;SDS011;22580;57.670;12.006;2023-04-01T05:37:30;0.50;;;0.50;;
13012;SDS011;22580;57.670;12.006;2023-04-01T05:40:04;0.50;;;0.50;;
13012;SDS011;22580;57.670;12.006;2023-04-01T05:42:51;0.50;;;0.50;;
13012;SDS011;22580;57.670;12.006;2023-04-01T05:45:20;0.47;;;0.47;;
13012;SDS011;22580;57.670;12.006;2023-04-01T05:47:51;0.53;;;0.53;;
13012;SDS011;22580;57.670;12.006;2023-04-01T05:50:20;0.40;;;0.40;;
13012;SDS011;22580;57.670;12.006;2023-04-01T05:52:51;0.70;;;0.60;;
13012;SDS011;22580;57.670;12.006;2023-04-01T05:55:22;0.40;;;0.40;;
13012;SDS011;22580;57.670;12.006;2023-04-01T05:57:51;0.63;;;0.60;;
13012;SDS011;22580;57.670;12.006;2023-04-01T06:00:20;1.03;;;0.53;;
13012;SDS011;22580;57.670;12.006;2023-04-01T06:02:50;0.60;;;0.50;;
13012;SDS011;22580;57.670;12.006;2023-04-01T06:05:24;0.40;;;0.40;;
13012;SDS011;22580;57.670;12.006;2023-04-01T06:11:14;0.40;;;0.40;;
13012;SDS011;22580;57.670;12.006;2023-04-01T06:14:22;0.40;;;0.40;;
13012;SDS011;22580;57.670;12.006;2023-04-01T06:17:25;0.70;;;0.70;;
13012;SDS011;22580;57.670;12.006;2023-04-01T06:20:10;0.37;;;0.37;;
13012;SDS011;22580;57.670;12.006;2023-04-01T06:29:11;0.50;;;0.50;;
13012;SDS011;22580;57.670;12.006;2023-04-01T06:35:28;0.50;;;0.50;;
13012;SDS011;22580;57.670;12.006;2023-04-01T06:41:07;0.60;;;0.60;;
13012;SDS011;22580;57.670;12.006;2023-04-01T06:43:52;0.50;;;0.50;;
13012;SDS011;22580;57.670;12.006;2023-04-01T06:46:32;0.50;;;0.50;;
13012;SDS011;22580;57.670;12.006;2023-04-01T06:49:22;0.47;;;0.47;;
13012;SDS011;22580;57.670;12.006;2023-04-01T06:55:15;0.70;;;0.57;;
13012;SDS011;22580;57.670;12.006;2023-04-01T06:58:00;0.50;;;0.50;;
13012;SDS011;22580;57.670;12.006;2023-04-01T07:00:41;0.40;;;0.40;;
13012;SDS011;22580;57.670;12.006;2023-04-01T07:03:19;0.30;;;0.30;;
13012;SDS011;22580;57.670;12.006;2023-04-01T07:05:52;0.37;;;0.37;;
13012;SDS011;22580;57.670;12.006;2023-04-01T07:08:35;0.53;;;0.40;;
13012;SDS011;22580;57.670;12.006;2023-04-01T07:11:35;0.40;;;0.33;;
13012;SDS011;22580;57.670;12.006;2023-04-01T07:14:41;0.40;;;0.40;;
13012;SDS011;22580;57.670;12.006;2023-04-01T07:17:13;0.40;;;0.40;;
13012;SDS011;22580;57.670;12.006;2023-04-01T07:19:52;0.30;;;0.30;;
13012;SDS011;22580;57.670;12.006;2023-04-01T07:22:31;0.87;;;0.40;;
13012;SDS011;22580;57.670;12.006;2023-04-01T07:25:11;0.80;;;0.50;;
13012;SDS011;22580;57.670;12.006;2023-04-01T07:27:41;0.60;;;0.50;;
13012;SDS011;22580;57.670;12.006;2023-04-01T07:30:13;0.70;;;0.60;;
13012;SDS011;22580;57.670;12.006;2023-04-01T07:35:43;0.40;;;0.40;;
13012;SDS011;22580;57.670;12.006;2023-04-01T07:38:42;0.60;;;0.40;;
13012;SDS011;22580;57.670;12.006;2023-04-01T07:41:45;0.30;;;0.30;;
13012;SDS011;22580;57.670;12.006;2023-04-01T07:47:34;0.37;;;0.37;;
13012;SDS011;22580;57.670;12.006;2023-04-01T07:50:25;0.40;;;0.40;;
13012;SDS011;22580;57.670;12.006;2023-04-01T07:53:02;2.23;;;0.77;;
13012;SDS011;22580;57.670;12.006;2023-04-01T07:55:54;0.57;;;0.50;;
13012;SDS011;22580;57.670;12.006;2023-04-01T07:58:45;0.50;;;0.50;;
13012;SDS011;22580;57.670;12.006;2023-04-01T08:01:48;0.30;;;0.30;;
13012;SDS011;22580;57.670;12.006;2023-04-01T08:04:33;0.30;;;0.30;;
13012;SDS011;22580;57.670;12.006;2023-04-01T08:16:44;0.47;;;0.40;;
13012;SDS011;22580;57.670;12.006;2023-04-01T08:19:43;0.40;;;0.40;;
13012;SDS011;22580;57.670;12.006;2023-04-01T08:22:40;0.50;;;0.50;;
13012;SDS011;22580;57.670;12.006;2023-04-01T08:25:24;0.43;;;0.37;;
13012;SDS011;22580;57.670;12.006;2023-04-01T08:28:33;1.77;;;0.47;;
13012;SDS011;22580;57.670;12.006;2023-04-01T08:31:32;1.23;;;0.50;;
13012;SDS011;22580;57.670;12.006;2023-04-01T08:34:21;0.43;;;0.43;;
13012;SDS011;22580;57.670;12.006;2023-04-01T08:37:01;0.40;;;0.40;;
13012;SDS011;22580;57.670;12.006;2023-04-01T08:40:35;0.50;;;0.40;;
13012;SDS011;22580;57.670;12.006;2023-04-01T08:47:12;0.60;;;0.60;;
13012;SDS011;22580;57.670;12.006;2023-04-01T08:56:39;0.77;;;0.40;;
13012;SDS011;22580;57.670;12.006;2023-04-01T08:59:15;0.50;;;0.50;;
13012;SDS011;22580;57.670;12.006;2023-04-01T09:02:19;0.50;;;0.50;;
13012;SDS011;22580;57.670;12.006;2023-04-01T09:05:28;0.50;;;0.40;;
13012;SDS011;22580;57.670;12.006;2023-04-01T09:08:19;0.43;;;0.40;;
13012;SDS011;22580;57.670;12.006;2023-04-01T09:11:11;0.30;;;0.30;;
13012;SDS011;22580;57.670;12.006;2023-04-01T09:14:15;0.30;;;0.30;;
13012;SDS011;22580;57.670;12.006;2023-04-01T09:17:01;0.40;;;0.40;;
13012;SDS011;22580;57.670;12.006;2023-04-01T09:20:02;0.53;;;0.53;;
13012;SDS011;22580;57.670;12.006;2023-04-01T09:22:50;0.40;;;0.40;;
13012;SDS011;22580;57.670;12.006;2023-04-01T09:25:51;0.30;;;0.30;;
13012;SDS011;22580;57.670;12.006;2023-04-01T09:28:44;0.87;;;0.60;;
13012;SDS011;22580;57.670;12.006;2023-04-01T09:34:43;0.67;;;0.60;;
13012;SDS011;22580;57.670;12.006;2023-04-01T09:40:42;1.07;;;0.30;;
13012;SDS011;22580;57.670;12.006;2023-04-01T09:43:32;0.50;;;0.50;;
13012;SDS011;22580;57.670;12.006;2023-04-01T09:46:22;0.60;;;0.30;;
13012;SDS011;22580;57.670;12.006;2023-04-01T09:49:16;1.00;;;0.30;;
13012;SDS011;22580;57.670;12.006;2023-04-01T09:52:03;0.50;;;0.30;;
13012;SDS011;22580;57.670;12.006;2023-04-01T09:54:55;0.30;;;0.30;;
13012;SDS011;22580;57.670;12.006;2023-04-01T09:57:35;0.30;;;0.30;;
13012;SDS011;22580;57.670;12.006;2023-04-01T10:00:46;0.43;;;0.20;;
13012;SDS011;22580;57.670;12.006;2023-04-01T10:13:26;0.30;;;0.30;;
13012;SDS011;22580;57.670;12.006;2023-04-01T10:16:25;0.50;;;0.40;;
13012;SDS011;22580;57.670;12.006;2023-04-01T10:22:23;0.20;;;0.20;;
13012;SDS011;22580;57.670;12.006;2023-04-01T10:25:20;0.40;;;0.40;;
13012;SDS011;22580;57.670;12.006;2023-04-01T10:38:04;0.47;;;0.30;;
13012;SDS011;22580;57.670;12.006;2023-04-01T10:41:14;0.40;;;0.30;;
13012;SDS011;22580;57.670;12.006;2023-04-01T10:54:07;0.20;;;0.20;;
13012;SDS011;22580;57.670;12.006;2023-04-01T10:56:54;0.20;;;0.20;;
13012;SDS011;22580;57.670;12.006;2023-04-01T11:02:57;0.40;;;0.40;;
13012;SDS011;22580;57.670;12.006;2023-04-01T11:19:22;0.33;;;0.33;;
13012;SDS011;22580;57.670;12.006;2023-04-01T11:22:24;0.33;;;0.33;;
13012;SDS011;22580;57.670;12.006;2023-04-01T11:28:51;0.37;;;0.37;;
13012;SDS011;22580;57.670;12.006;2023-04-01T11:31:45;0.47;;;0.47;;
13012;SDS011;22580;57.670;12.006;2023-04-01T11:34:35;0.50;;;0.50;;
13012;SDS011;22580;57.670;12.006;2023-04-01T11:37:20;0.73;;;0.70;;
13012;SDS011;22580;57.670;12.006;2023-04-01T11:40:00;0.40;;;0.40;;
13012;SDS011;22580;57.670;12.006;2023-04-01T11:42:40;0.80;;;0.60;;
13012;SDS011;22580;57.670;12.006;2023-04-01T11:45:21;4.83;;;1.80;;
13012;SDS011;22580;57.670;12.006;2023-04-01T11:48:03;1.73;;;1.37;;
13012;SDS011;22580;57.670;12.006;2023-04-01T11:51:09;1.53;;;0.90;;
13012;SDS011;22580;57.670;12.006;2023-04-01T11:54:14;1.03;;;0.70;;
13012;SDS011;22580;57.670;12.006;2023-04-01T11:57:01;0.40;;;0.40;;
13012;SDS011;22580;57.670;12.006;2023-04-01T11:59:43;0.50;;;0.50;;
13012;SDS011;22580;57.670;12.006;2023-04-01T12:02:43;0.40;;;0.30;;
13012;SDS011;22580;57.670;12.006;2023-04-01T12:05:51;0.60;;;0.20;;
13012;SDS011;22580;57.670;12.006;2023-04-01T12:08:32;0.20;;;0.20;;
13012;SDS011;22580;57.670;12.006;2023-04-01T12:11:24;0.20;;;0.20;;
13012;SDS011;22580;57.670;12.006;2023-04-01T12:14:13;1.07;;;0.30;;
13012;SDS011;22580;57.670;12.006;2023-04-01T12:17:04;0.37;;;0.20;;
13012;SDS011;22580;57.670;12.006;2023-04-01T12:19:53;0.83;;;0.40;;
13012;SDS011;22580;57.670;12.006;2023-04-01T12:22:45;1.03;;;0.23;;
13012;SDS011;22580;57.670;12.006;2023-04-01T12:25:55;0.30;;;0.30;;
13012;SDS011;22580;57.670;12.006;2023-04-01T12:28:55;0.40;;;0.30;;
13012;SDS011;22580;57.670;12.006;2023-04-01T12:35:21;0.40;;;0.40;;
13012;SDS011;22580;57.670;12.006;2023-04-01T12:38:14;0.47;;;0.40;;
13012;SDS011;22580;57.670;12.006;2023-04-01T12:41:03;0.30;;;0.30;;
13012;SDS011;22580;57.670;12.006;2023-04-01T12:50:36;0.20;;;0.20;;
13012;SDS011;22580;57.670;12.006;2023-04-01T12:53:22;0.20;;;0.20;;
13012;SDS011;22580;57.670;12.006;2023-04-01T12:59:19;0.30;;;0.30;;
13012;SDS011;22580;57.670;12.006;2023-04-01T13:11:13;0.20;;;0.20;;
13012;SDS011;22580;57.670;12.006;2023-04-01T13:17:33;0.30;;;0.30;;
13012;SDS011;22580;57.670;12.006;2023-04-01T13:20:23;0.30;;;0.30;;
13012;SDS011;22580;57.670;12.006;2023-04-01T13:23:33;0.20;;;0.20;;
13012;SDS011;22580;57.670;12.006;2023-04-01T13:26:22;0.30;;;0.30;;
13012;SDS011;22580;57.670;12.006;2023-04-01T13:29:12;0.30;;;0.30;;
13012;SDS011;22580;57.670;12.006;2023-04-01T13:35:03;0.20;;;0.20;;
13012;SDS011;22580;57.670;12.006;2023-04-01T13:37:56;0.20;;;0.20;;
13012;SDS011;22580;57.670;12.006;2023-04-01T13:43:51;0.30;;;0.30;;
13012;SDS011;22580;57.670;12.006;2023-04-01T13:46:37;0.30;;;0.20;;
13012;SDS011;22580;57.670;12.006;2023-04-01T13:49:38;1.13;;;0.37;;
13012;SDS011;22580;57.670;12.006;2023-04-01T13:55:45;0.20;;;0.20;;
13012;SDS011;22580;57.670;12.006;2023-04-01T14:01:31;0.93;;;0.30;;
13012;SDS011;22580;57.670;12.006;2023-04-01T14:04:12;0.10;;;0.10;;
13012;SDS011;22580;57.670;12.006;2023-04-01T14:07:22;0.10;;;0.10;;
13012;SDS011;22580;57.670;12.006;2023-04-01T14:10:13;0.27;;;0.20;;
13012;SDS011;22580;57.670;12.006;2023-04-01T14:13:04;0.30;;;0.30;;
13012;SDS011;22580;57.670;12.006;2023-04-01T14:16:02;0.27;;;0.20;;
13012;SDS011;22580;57.670;12.006;2023-04-01T14:18:55;0.20;;;0.20;;
13012;SDS011;22580;57.670;12.006;2023-04-01T14:21:46;0.20;;;0.20;;
13012;SDS011;22580;57.670;12.006;2023-04-01T14:27:51;0.10;;;0.10;;
13012;SDS011;22580;57.670;12.006;2023-04-01T14:30:35;0.60;;;0.50;;
13012;SDS011;22580;57.670;12.006;2023-04-01T14:33:26;0.93;;;0.50;;
13012;SDS011;22580;57.670;12.006;2023-04-01T14:36:23;0.77;;;0.50;;
13012;SDS011;22580;57.670;12.006;2023-04-01T14:39:15;0.67;;;0.60;;
13012;SDS011;22580;57.670;12.006;2023-04-01T14:42:03;0.87;;;0.40;;
13012;SDS011;22580;57.670;12.006;2023-04-01T14:48:03;0.40;;;0.40;;
13012;SDS011;22580;57.670;12.006;2023-04-01T14:53:41;0.10;;;0.10;;
13012;SDS011;22580;57.670;12.006;2023-04-01T14:59:15;0.13;;;0.13;;
13012;SDS011;22580;57.670;12.006;2023-04-01T15:02:14;0.20;;;0.10;;
13012;SDS011;22580;57.670;12.006;2023-04-01T15:05:05;0.23;;;0.20;;
13012;SDS011;22580;57.670;12.006;2023-04-01T15:08:03;0.23;;;0.23;;
13012;SDS011;22580;57.670;12.006;2023-04-01T15:10:41;0.20;;;0.17;;
13012;SDS011;22580;57.670;12.006;2023-04-01T15:16:31;0.10;;;0.10;;
13012;SDS011;22580;57.670;12.006;2023-04-01T15:19:24;0.20;;;0.20;;
13012;SDS011;22580;57.670;12.006;2023-04-01T15:22:33;0.10;;;0.10;;
13012;SDS011;22580;57.670;12.006;2023-04-01T15:25:23;0.20;;;0.10;;
13012;SDS011;22580;57.670;12.006;2023-04-01T15:28:04;0.20;;;0.20;;
13012;SDS011;22580;57.670;12.006;2023-04-01T15:30:45;0.10;;;0.10;;
13012;SDS011;22580;57.670;12.006;2023-04-01T15:33:23;0.20;;;0.20;;
13012;SDS011;22580;57.670;12.006;2023-04-01T15:36:05;0.10;;;0.10;;
13012;SDS011;22580;57.670;12.006;2023-04-01T15:38:53;0.20;;;0.20;;
13012;SDS011;22580;57.670;12.006;2023-04-01T15:42:06;0.17;;;0.17;;
13012;SDS011;22580;57.670;12.006;2023-04-01T15:45:00;0.17;;;0.17;;
13012;SDS011;22580;57.670;12.006;2023-04-01T15:47:46;0.20;;;0.20;;
13012;SDS011;22580;57.670;12.006;2023-04-01T15:50:36;0.27;;;0.27;;
13012;SDS011;22580;57.670;12.006;2023-04-01T15:56:22;0.20;;;0.20;;
13012;SDS011;22580;57.670;12.006;2023-04-01T15:59:12;0.20;;;0.20;;
13012;SDS011;22580;57.670;12.006;2023-04-01T16:01:55;0.20;;;0.20;;
13012;SDS011;22580;57.670;12.006;2023-04-01T16:05:03;0.20;;;0.20;;
13012;SDS011;22580;57.670;12.006;2023-04-01T16:08:06;0.20;;;0.20;;
13012;SDS011;22580;57.670;12.006;2023-04-01T16:10:52;0.23;;;0.20;;
13012;SDS011;22580;57.670;12.006;2023-04-01T16:13:42;0.30;;;0.30;;
13012;SDS011;22580;57.670;12.006;2023-04-01T16:16:33;0.20;;;0.20;;
13012;SDS011;22580;57.670;12.006;2023-04-01T16:19:20;0.40;;;0.20;;
13012;SDS011;22580;57.670;12.006;2023-04-01T16:22:27;0.20;;;0.20;;
13012;SDS011;22580;57.670;12.006;2023-04-01T16:25:14;0.20;;;0.20;;
13012;SDS011;22580;57.670;12.006;2023-04-01T16:28:08;0.10;;;0.10;;
13012;SDS011;22580;57.670;12.006;2023-04-01T16:30:54;0.20;;;0.20;;
13012;SDS011;22580;57.670;12.006;2023-04-01T16:36:52;0.23;;;0.23;;
13012;SDS011;22580;57.670;12.006;2023-04-01T16:39:33;0.20;;;0.20;;
13012;SDS011;22580;57.670;12.006;2023-04-01T16:42:32;0.77;;;0.40;;
13012;SDS011;22580;57.670;12.006;2023-04-01T16:45:26;0.20;;;0.20;;
13012;SDS011;22580;57.670;12.006;2023-04-01T16:48:11;0.30;;;0.30;;
13012;SDS011;22580;57.670;12.006;2023-04-01T16:50:55;0.90;;;0.43;;
13012;SDS011;22580;57.670;12.006;2023-04-01T16:53:35;0.63;;;0.30;;
13012;SDS011;22580;57.670;12.006;2023-04-01T16:56:37;0.23;;;0.23;;
13012;SDS011;22580;57.670;12.006;2023-04-01T16:59:21;0.37;;;0.33;;
13012;SDS011;22580;57.670;12.006;2023-04-01T17:02:12;0.30;;;0.20;;
13012;SDS011;22580;57.670;12.006;2023-04-01T17:05:11;0.93;;;0.30;;
13012;SDS011;22580;57.670;12.006;2023-04-01T17:07:55;0.30;;;0.30;;
13012;SDS011;22580;57.670;12.006;2023-04-01T17:10:52;0.90;;;0.40;;
13012;SDS011;22580;57.670;12.006;2023-04-01T17:13:43;0.87;;;0.40;;
13012;SDS011;22580;57.670;12.006;2023-04-01T17:16:42;0.30;;;0.30;;
13012;SDS011;22580;57.670;12.006;2023-04-01T17:19:33;0.20;;;0.20;;
13012;SDS011;22580;57.670;12.006;2023-04-01T17:22:24;0.30;;;0.30;;
13012;SDS011;22580;57.670;12.006;2023-04-01T17:25:35;0.90;;;0.30;;
13012;SDS011;22580;57.670;12.006;2023-04-01T17:28:52;0.57;;;0.30;;
13012;SDS011;22580;57.670;12.006;2023-04-01T17:31:45;0.20;;;0.20;;
13012;SDS011;22580;57.670;12.006;2023-04-01T17:34:51;0.30;;;0.20;;
13012;SDS011;22580;57.670;12.006;2023-04-01T17:37:53;0.23;;;0.20;;
13012;SDS011;22580;57.670;12.006;2023-04-01T17:40:45;0.50;;;0.40;;
13012;SDS011;22580;57.670;12.006;2023-04-01T17:43:44;0.20;;;0.20;;
13012;SDS011;22580;57.670;12.006;2023-04-01T17:46:31;0.40;;;0.40;;
13012;SDS011;22580;57.670;12.006;2023-04-01T17:49:23;0.20;;;0.20;;
13012;SDS011;22580;57.670;12.006;2023-04-01T17:52:15;0.43;;;0.43;;
13012;SDS011;22580;57.670;12.006;2023-04-01T17:55:05;0.43;;;0.30;;
13012;SDS011;22580;57.670;12.006;2023-04-01T18:01:03;0.20;;;0.20;;
13012;SDS011;22580;57.670;12.006;2023-04-01T18:06:54;0.20;;;0.20;;
13012;SDS011;22580;57.670;12.006;2023-04-01T18:09:38;0.30;;;0.30;;
13012;SDS011;22580;57.670;12.006;2023-04-01T18:12:23;0.20;;;0.20;;
13012;SDS011;22580;57.670;12.006;2023-04-01T18:15:21;1.17;;;0.37;;
13012;SDS011;22580;57.670;12.006;2023-04-01T18:18:34;0.30;;;0.30;;
13012;SDS011;22580;57.670;12.006;2023-04-01T18:21:23;0.17;;;0.17;;
13012;SDS011;22580;57.670;12.006;2023-04-01T18:24:31;0.93;;;0.30;;
13012;SDS011;22580;57.670;12.006;2023-04-01T18:27:14;0.20;;;0.20;;
13012;SDS011;22580;57.670;12.006;2023-04-01T18:30:25;0.20;;;0.20;;
13012;SDS011;22580;57.670;12.006;2023-04-01T18:33:03;0.20;;;0.20;;
13012;SDS011;22580;57.670;12.006;2023-04-01T18:35:45;0.20;;;0.20;;
13012;SDS011;22580;57.670;12.006;2023-04-01T18:38:44;0.10;;;0.10;;
13012;SDS011;22580;57.670;12.006;2023-04-01T18:41:35;0.10;;;0.10;;
13012;SDS011;22580;57.670;12.006;2023-04-01T18:44:34;0.20;;;0.20;;
13012;SDS011;22580;57.670;12.006;2023-04-01T18:47:24;0.20;;;0.17;;
13012;SDS011;22580;57.670;12.006;2023-04-01T18:53:42;0.20;;;0.20;;
13012;SDS011;22580;57.670;12.006;2023-04-01T19:05:23;0.20;;;0.20;;
13012;SDS011;22580;57.670;12.006;2023-04-01T19:14:02;0.60;;;0.60;;
13012;SDS011;22580;57.670;12.006;2023-04-01T19:17:02;0.40;;;0.40;;
13012;SDS011;22580;57.670;12.006;2023-04-01T19:20:04;0.40;;;0.30;;
13012;SDS011;22580;57.670;12.006;2023-04-01T19:26:22;0.10;;;0.10;;
13012;SDS011;22580;57.670;12.006;2023-04-01T19:29:02;0.20;;;0.20;;
13012;SDS011;22580;57.670;12.006;2023-04-01T19:31:52;0.30;;;0.30;;
13012;SDS011;22580;57.670;12.006;2023-04-01T19:34:45;0.20;;;0.20;;
13012;SDS011;22580;57.670;12.006;2023-04-01T19:37:32;0.00;;;0.00;;